Terminal Aerodrome Forecast
Issued by NWS

Home | Current Version | Previous Version | Text Only | Print | Product List | Glossary On
Versions: 1 2 3 4 5 6 7 8 9 10 11 12 13 14 15
455
FTPA31 PHFO 081402 AAA
TAFHMK
TAF AMD
PHMK 081402Z 0814/0912 02007KT P6SM FEW030 SCT050
     FM082000 02010G18KT P6SM FEW030 SCT050
     FM090600 02005KT P6SM FEW030 SCT050
      AMD NOT SKED=

USA.gov is the U.S. government's official web portal to all federal, state and local government web resources and services.